createdAt,value
2023-05-16T00:01:24.169Z,0
2023-05-16T00:03:03.885Z,0
2023-05-16T00:04:43.650Z,0
2023-05-16T00:06:23.423Z,0
2023-05-16T00:08:03.200Z,0
2023-05-16T00:09:42.977Z,0
2023-05-16T00:11:22.748Z,0
2023-05-16T00:13:02.489Z,0
2023-05-16T00:14:42.264Z,0
2023-05-16T00:16:22.037Z,0
2023-05-16T00:18:01.795Z,0
2023-05-16T00:19:41.557Z,0
2023-05-16T00:21:21.328Z,0
2023-05-16T00:23:01.085Z,0
2023-05-16T00:24:40.862Z,0
2023-05-16T00:26:20.641Z,0
2023-05-16T00:28:00.392Z,0
2023-05-16T00:29:40.168Z,0
2023-05-16T00:31:19.950Z,0
2023-05-16T00:32:59.712Z,0
2023-05-16T00:34:39.475Z,0
2023-05-16T00:36:19.239Z,0
2023-05-16T00:37:59.003Z,0
2023-05-16T00:39:38.774Z,0
2023-05-16T00:41:18.548Z,0
2023-05-16T00:42:58.311Z,0
2023-05-16T00:44:38.094Z,0
2023-05-16T00:46:17.855Z,0
2023-05-16T00:47:57.621Z,0
2023-05-16T00:49:37.389Z,0
2023-05-16T00:51:17.160Z,0
2023-05-16T00:52:56.911Z,0
2023-05-16T00:54:36.680Z,0
2023-05-16T00:56:16.456Z,0
2023-05-16T00:57:56.220Z,0
2023-05-16T00:59:35.980Z,0
2023-05-16T01:01:15.766Z,0
2023-05-16T01:02:55.517Z,0
2023-05-16T01:04:35.281Z,0
2023-05-16T01:06:15.056Z,0
2023-05-16T01:07:54.821Z,0
2023-05-16T01:09:34.606Z,0
2023-05-16T01:11:14.354Z,0
2023-05-16T01:12:54.120Z,0
2023-05-16T01:14:33.894Z,0
2023-05-16T01:16:13.658Z,0
2023-05-16T01:17:53.423Z,0
2023-05-16T01:19:33.186Z,0
2023-05-16T01:21:12.948Z,0
2023-05-16T01:22:52.733Z,0
2023-05-16T01:24:32.480Z,0
2023-05-16T01:26:12.253Z,0
2023-05-16T01:27:52.023Z,0
2023-05-16T01:29:31.795Z,0
2023-05-16T01:31:11.559Z,0
2023-05-16T01:32:51.336Z,0
2023-05-16T01:34:31.080Z,0
2023-05-16T01:36:10.872Z,0
2023-05-16T01:37:50.622Z,0
2023-05-16T01:39:30.401Z,0
2023-05-16T01:41:10.167Z,0
2023-05-16T01:42:49.927Z,0
2023-05-16T01:44:29.700Z,0
2023-05-16T01:46:09.470Z,0
2023-05-16T01:47:49.227Z,0
2023-05-16T01:49:29.011Z,0
2023-05-16T01:51:08.763Z,0
2023-05-16T01:52:48.563Z,0
2023-05-16T01:54:28.305Z,0
2023-05-16T01:56:08.069Z,0
2023-05-16T01:57:47.834Z,0
2023-05-16T01:59:27.594Z,0
2023-05-16T02:01:07.378Z,0
2023-05-16T02:02:47.144Z,0
2023-05-16T02:04:26.904Z,0
2023-05-16T02:06:06.678Z,0
2023-05-16T02:07:46.436Z,0
2023-05-16T02:09:26.206Z,0
2023-05-16T02:11:05.968Z,0
2023-05-16T02:12:45.747Z,0
2023-05-16T02:14:25.506Z,0
2023-05-16T02:16:05.295Z,0
2023-05-16T02:17:45.050Z,0
2023-05-16T02:19:24.823Z,0
2023-05-16T02:21:04.587Z,0
2023-05-16T02:22:44.346Z,0
2023-05-16T02:24:24.119Z,0
2023-05-16T02:26:03.895Z,0
2023-05-16T02:27:43.661Z,0
2023-05-16T02:29:23.424Z,0
2023-05-16T02:31:03.199Z,0
2023-05-16T02:32:42.950Z,0
2023-05-16T02:34:22.720Z,0
2023-05-16T02:36:02.489Z,0
2023-05-16T02:37:42.258Z,0
2023-05-16T02:39:22.025Z,0
2023-05-16T02:41:01.784Z,0
2023-05-16T02:42:41.559Z,0
2023-05-16T02:44:21.321Z,0
2023-05-16T02:46:01.113Z,0
2023-05-16T02:47:40.859Z,0
2023-05-16T02:49:20.618Z,0
2023-05-16T02:51:00.390Z,0
2023-05-16T02:52:40.160Z,0
2023-05-16T02:54:19.938Z,0
2023-05-16T02:55:59.705Z,0
2023-05-16T02:57:39.460Z,0
2023-05-16T02:59:19.243Z,0
2023-05-16T03:00:58.993Z,0
2023-05-16T03:02:38.758Z,0
2023-05-16T03:04:18.535Z,0
2023-05-16T03:05:58.311Z,0
2023-05-16T03:07:38.059Z,0
2023-05-16T03:09:17.843Z,0
2023-05-16T03:10:57.614Z,0
2023-05-16T03:12:37.377Z,0
2023-05-16T03:14:17.142Z,0
2023-05-16T03:15:56.908Z,0
2023-05-16T03:17:36.685Z,0
2023-05-16T03:19:16.465Z,0
2023-05-16T03:20:56.224Z,0
2023-05-16T03:22:35.989Z,0
2023-05-16T03:24:15.749Z,0
2023-05-16T03:25:55.514Z,0
2023-05-16T03:27:35.287Z,0
2023-05-16T03:29:15.055Z,0
2023-05-16T03:30:54.810Z,0
2023-05-16T03:32:34.588Z,0
2023-05-16T03:34:14.357Z,0
2023-05-16T03:35:54.137Z,0
2023-05-16T03:37:33.878Z,0
2023-05-16T03:39:13.660Z,0
2023-05-16T03:40:53.429Z,0
2023-05-16T03:42:33.201Z,0
2023-05-16T03:44:12.962Z,0.51
2023-05-16T03:45:52.737Z,0.25
2023-05-16T03:47:32.490Z,0
2023-05-16T03:49:12.257Z,0.25
2023-05-16T03:50:52.025Z,0.77
2023-05-16T03:52:31.790Z,0.51
2023-05-16T03:54:11.587Z,0.77
2023-05-16T03:55:51.354Z,0
2023-05-16T03:57:31.130Z,1.03
2023-05-16T03:59:10.881Z,0.77
2023-05-16T04:00:50.633Z,0.77
2023-05-16T04:02:30.400Z,1.54
2023-05-16T04:04:10.163Z,1.8
2023-05-16T04:05:49.950Z,1.8
2023-05-16T04:07:29.718Z,1.8
2023-05-16T04:09:09.474Z,1.54
2023-05-16T04:10:49.239Z,1.54
2023-05-16T04:12:29.013Z,1.54
2023-05-16T04:14:08.784Z,1.28
2023-05-16T04:15:48.546Z,2.84
2023-05-16T04:17:28.347Z,2.58
2023-05-16T04:19:08.091Z,3.61
2023-05-16T04:20:47.856Z,3.62
2023-05-16T04:22:27.635Z,4.91
2023-05-16T04:24:07.390Z,4.14
2023-05-16T04:25:47.178Z,3.63
2023-05-16T04:27:26.925Z,4.15
2023-05-16T04:29:06.713Z,5.96
2023-05-16T04:30:46.469Z,4.92
2023-05-16T04:32:26.237Z,4.15
2023-05-16T04:34:06.010Z,3.89
2023-05-16T04:35:45.792Z,4.41
2023-05-16T04:37:25.559Z,4.41
2023-05-16T04:39:05.335Z,2.85
2023-05-16T04:40:45.089Z,4.42
2023-05-16T04:42:24.861Z,3.9
2023-05-16T04:44:04.636Z,4.42
2023-05-16T04:45:44.408Z,3.38
2023-05-16T04:47:24.167Z,3.12
2023-05-16T04:49:03.934Z,3.64
2023-05-16T04:50:43.711Z,3.64
2023-05-16T04:52:23.489Z,2.33
2023-05-16T04:54:03.260Z,4.16
2023-05-16T04:55:43.041Z,6.53
2023-05-16T04:57:22.794Z,4.94
2023-05-16T04:59:02.558Z,5.21
2023-05-16T05:00:42.337Z,4.96
2023-05-16T05:02:22.092Z,4.69
2023-05-16T05:04:01.864Z,4.17
2023-05-16T05:05:41.645Z,5.47
2023-05-16T05:07:21.404Z,5.22
2023-05-16T05:09:01.174Z,6.28
2023-05-16T05:10:40.946Z,6.02
2023-05-16T05:12:20.735Z,6.03
2023-05-16T05:14:00.495Z,5.76
2023-05-16T05:15:40.264Z,4.98
2023-05-16T05:17:20.031Z,6.82
2023-05-16T05:18:59.800Z,8.14
2023-05-16T05:20:39.568Z,5.78
2023-05-16T05:22:19.339Z,8.14
2023-05-16T05:23:59.118Z,6.31
2023-05-16T05:25:38.891Z,7.37
2023-05-16T05:27:18.654Z,7.64
2023-05-16T05:28:58.433Z,6.59
2023-05-16T05:30:38.188Z,7.38
2023-05-16T05:32:17.960Z,8.93
2023-05-16T05:33:57.746Z,9.79
2023-05-16T05:35:37.506Z,7.41
2023-05-16T05:37:17.281Z,7.15
2023-05-16T05:38:57.057Z,9.28
2023-05-16T05:40:36.812Z,9.82
2023-05-16T05:42:16.601Z,10.09
2023-05-16T05:43:56.344Z,10.64
2023-05-16T05:45:36.113Z,9.85
2023-05-16T05:47:15.894Z,9.85
2023-05-16T05:48:55.662Z,10.94
2023-05-16T05:50:35.432Z,12.03
2023-05-16T05:52:15.203Z,12.87
2023-05-16T05:53:54.987Z,13.69
2023-05-16T05:55:34.753Z,28.42
2023-05-16T05:57:14.514Z,17.86
2023-05-16T05:58:54.280Z,12.16
2023-05-16T06:00:34.066Z,14.06
2023-05-16T06:02:13.840Z,14.35
2023-05-16T06:03:53.613Z,13.83
2023-05-16T06:05:33.377Z,16.03
2023-05-16T06:07:13.141Z,14.96
2023-05-16T06:08:52.936Z,14.98
2023-05-16T06:10:32.689Z,15.01
2023-05-16T06:12:12.470Z,17.77
2023-05-16T06:13:52.219Z,16.41
2023-05-16T06:15:32.024Z,16.43
2023-05-16T06:17:11.779Z,22.01
2023-05-16T06:18:51.539Z,22.34
2023-05-16T06:20:31.308Z,19.04
2023-05-16T06:22:11.104Z,20.75
2023-05-16T06:23:50.852Z,22.68
2023-05-16T06:25:30.639Z,23.92
2023-05-16T06:27:10.380Z,24.79
2023-05-16T06:28:50.153Z,29.14
2023-05-16T06:30:29.955Z,28.64
2023-05-16T06:32:09.689Z,29.55
2023-05-16T06:33:49.473Z,30.51
2023-05-16T06:35:29.243Z,33.18
2023-05-16T06:37:09.005Z,31.31
2023-05-16T06:38:48.791Z,30.43
2023-05-16T06:40:28.543Z,28.74
2023-05-16T06:42:08.328Z,30.58
2023-05-16T06:43:48.087Z,30.05
2023-05-16T06:45:27.883Z,29.8
2023-05-16T06:47:07.630Z,30.68
2023-05-16T06:48:47.414Z,29.87
2023-05-16T06:50:27.171Z,30.48
2023-05-16T06:52:07.015Z,26.27
2023-05-16T06:53:46.717Z,26.21
2023-05-16T06:55:26.474Z,27.63
2023-05-16T06:57:06.273Z,39.38
2023-05-16T06:58:46.063Z,35.72
2023-05-16T07:00:25.800Z,34.84
2023-05-16T07:02:05.560Z,34.55
2023-05-16T07:03:45.329Z,35.13
2023-05-16T07:05:25.114Z,34.84
2023-05-16T07:07:04.877Z,34.24
2023-05-16T07:08:44.649Z,35.41
2023-05-16T07:10:24.409Z,34.53
2023-05-16T07:12:04.182Z,34.84
2023-05-16T07:13:43.953Z,35.41
2023-05-16T07:15:23.726Z,35.39
2023-05-16T07:17:03.496Z,35.41
2023-05-16T07:18:43.267Z,36
2023-05-16T07:20:23.041Z,35.12
2023-05-16T07:22:02.810Z,36.3
2023-05-16T07:23:42.587Z,35.41
2023-05-16T07:25:22.357Z,35.7
2023-05-16T07:27:02.128Z,36.58
2023-05-16T07:28:41.930Z,35.41
2023-05-16T07:30:21.733Z,36.86
2023-05-16T07:32:01.434Z,35.41
2023-05-16T07:33:41.201Z,35.11
2023-05-16T07:35:20.969Z,35.98
2023-05-16T07:37:00.749Z,35.68
2023-05-16T07:38:40.502Z,36.86
2023-05-16T07:40:20.288Z,35.96
2023-05-16T07:42:00.079Z,35.79
2023-05-16T07:43:40.035Z,35.7
2023-05-16T07:45:19.612Z,35.4
2023-05-16T07:46:59.367Z,36
2023-05-16T07:48:39.214Z,35.98
2023-05-16T07:50:18.894Z,35.11
2023-05-16T07:51:58.665Z,35.7
2023-05-16T07:53:38.436Z,35.41
2023-05-16T07:55:18.212Z,35.11
2023-05-16T07:56:57.978Z,35.41
2023-05-16T07:58:37.752Z,35.68
2023-05-16T08:00:17.521Z,34.83
2023-05-16T08:01:57.302Z,35.11
2023-05-16T08:03:37.068Z,35.09
2023-05-16T08:05:16.841Z,35.38
2023-05-16T08:06:56.609Z,35.39
2023-05-16T08:08:36.363Z,35.4
2023-05-16T08:10:16.231Z,34.83
2023-05-16T08:11:55.921Z,35.12
2023-05-16T08:13:35.701Z,34.53
2023-05-16T08:15:15.558Z,34.5
2023-05-16T08:16:55.429Z,34.23
2023-05-16T08:18:34.992Z,35.11
2023-05-16T08:20:14.774Z,33.95
2023-05-16T08:21:54.552Z,33.93
2023-05-16T08:23:34.316Z,34.8
2023-05-16T08:25:14.095Z,34.22
2023-05-16T08:26:53.861Z,35.11
2023-05-16T08:28:33.629Z,34.22
2023-05-16T08:30:13.391Z,33.93
2023-05-16T08:31:53.165Z,34.22
2023-05-16T08:33:32.933Z,33.32
2023-05-16T08:35:12.691Z,34.8
2023-05-16T08:36:52.487Z,35.09
2023-05-16T08:38:32.239Z,34.52
2023-05-16T08:40:12.022Z,34.52
2023-05-16T08:41:51.890Z,35.09
2023-05-16T08:43:31.698Z,34.52
2023-05-16T08:45:11.325Z,34.8
2023-05-16T08:46:51.115Z,33.66
2023-05-16T08:48:30.871Z,34.22
2023-05-16T08:50:10.647Z,34.8
2023-05-16T08:51:50.418Z,34.5
2023-05-16T08:53:30.176Z,33.93
2023-05-16T08:55:09.946Z,34.22
2023-05-16T08:56:49.717Z,34.22
2023-05-16T08:58:29.491Z,34.5
2023-05-16T09:00:09.268Z,34
2023-05-16T09:01:49.033Z,34.5
2023-05-16T09:03:28.945Z,34.23
2023-05-16T09:05:08.709Z,34.22
2023-05-16T09:06:48.371Z,34.52
2023-05-16T09:08:28.118Z,33.64
2023-05-16T09:10:07.882Z,34.5
2023-05-16T09:11:47.661Z,33.66
2023-05-16T09:13:27.424Z,33.64
2023-05-16T09:15:07.189Z,34.22
2023-05-16T09:16:46.971Z,34.23
2023-05-16T09:18:26.745Z,33.93
2023-05-16T09:20:06.516Z,33.36
2023-05-16T09:21:46.271Z,33.63
2023-05-16T09:23:26.075Z,34.5
2023-05-16T09:25:05.818Z,34.5
2023-05-16T09:26:45.596Z,34.22
2023-05-16T09:28:25.368Z,33.34
2023-05-16T09:30:05.136Z,34.22
2023-05-16T09:31:44.909Z,34.23
2023-05-16T09:33:24.676Z,34.52
2023-05-16T09:35:04.454Z,33.64
2023-05-16T09:36:44.216Z,34.22
2023-05-16T09:38:23.994Z,34.5
2023-05-16T09:40:03.755Z,34.5
2023-05-16T09:41:43.531Z,33.93
2023-05-16T09:43:23.305Z,34.5
2023-05-16T09:45:03.114Z,33.91
2023-05-16T09:46:42.856Z,34.8
2023-05-16T09:48:22.626Z,34.5
2023-05-16T09:50:02.380Z,33.62
2023-05-16T09:51:42.136Z,34.16
2023-05-16T09:53:21.926Z,34.21
2023-05-16T09:55:01.682Z,34.22
2023-05-16T09:56:41.459Z,32.43
2023-05-16T09:58:21.232Z,0
2023-05-16T10:00:01.006Z,0
2023-05-16T10:01:40.774Z,0
2023-05-16T10:03:20.561Z,0
2023-05-16T10:05:00.305Z,0
2023-05-16T10:06:40.094Z,0
2023-05-16T10:08:19.851Z,0.54
2023-05-16T10:09:59.627Z,6.31
2023-05-16T10:11:39.386Z,6.03
2023-05-16T10:13:19.146Z,6.03
2023-05-16T10:14:58.934Z,6.58
2023-05-16T10:16:38.691Z,6.86
2023-05-16T10:18:18.471Z,4.09
2023-05-16T10:19:58.240Z,7.95
2023-05-16T10:21:38.025Z,7.68
2023-05-16T10:23:17.785Z,8.78
2023-05-16T10:24:57.550Z,8.22
2023-05-16T10:26:37.318Z,9.05
2023-05-16T10:28:17.174Z,7.68
2023-05-16T10:29:57.020Z,7.68
2023-05-16T10:31:36.627Z,9.05
2023-05-16T10:33:16.398Z,9.05
2023-05-16T10:34:56.178Z,8.5
2023-05-16T10:36:35.948Z,8.22
2023-05-16T10:38:15.705Z,8.5
2023-05-16T10:39:55.476Z,8.77
2023-05-16T10:41:35.253Z,8.5
2023-05-16T10:43:15.033Z,8.5
2023-05-16T10:44:54.810Z,8.5
2023-05-16T10:46:34.560Z,8.22
2023-05-16T10:48:14.331Z,8.78
2023-05-16T10:49:54.105Z,8.22
2023-05-16T10:51:33.883Z,8.22
2023-05-16T10:53:13.639Z,8.5
2023-05-16T10:54:53.412Z,8.78
2023-05-16T10:56:33.211Z,8.5
2023-05-16T10:58:12.943Z,8.5
2023-05-16T10:59:52.724Z,8.78
2023-05-16T11:01:32.496Z,8.5
2023-05-16T11:03:12.297Z,8.22
2023-05-16T11:04:52.042Z,8.22
2023-05-16T11:06:31.804Z,8.78
2023-05-16T11:08:11.571Z,8.5
2023-05-16T11:09:51.341Z,7.11
2023-05-16T11:11:31.121Z,7.95
2023-05-16T11:13:10.885Z,8.78
2023-05-16T11:14:50.653Z,8.78
2023-05-16T11:16:30.434Z,7.68
2023-05-16T11:18:10.200Z,8.5
2023-05-16T11:19:49.963Z,9.05
2023-05-16T11:21:29.731Z,8.22
2023-05-16T11:23:09.544Z,8.22
2023-05-16T11:24:49.315Z,9.05
2023-05-16T11:26:29.154Z,8.22
2023-05-16T11:28:08.975Z,9.05
2023-05-16T11:29:48.586Z,9.05
2023-05-16T11:31:28.375Z,8.77
2023-05-16T11:33:08.124Z,8.5
2023-05-16T11:34:47.898Z,8.22
2023-05-16T11:36:27.673Z,9.01
2023-05-16T11:38:07.446Z,8.78
2023-05-16T11:39:47.215Z,8.22
2023-05-16T11:41:26.986Z,7.67
2023-05-16T11:43:06.768Z,7.95
2023-05-16T11:44:46.543Z,8.5
2023-05-16T11:46:26.303Z,8.22
2023-05-16T11:48:06.080Z,8.77
2023-05-16T11:49:45.852Z,8.5
2023-05-16T11:51:25.614Z,7.95
2023-05-16T11:53:05.381Z,8.78
2023-05-16T11:54:45.158Z,7.95
2023-05-16T11:56:24.937Z,8.22
2023-05-16T11:58:04.854Z,8.22
2023-05-16T11:59:44.636Z,7.68
2023-05-16T12:01:24.346Z,8.22
2023-05-16T12:03:04.001Z,7.95
2023-05-16T12:04:43.777Z,9.05
2023-05-16T12:06:23.551Z,8.5
2023-05-16T12:08:03.333Z,8.22
2023-05-16T12:09:43.088Z,7.67
2023-05-16T12:11:22.847Z,8.22
2023-05-16T12:13:02.627Z,8.5
2023-05-16T12:14:42.397Z,8.5
2023-05-16T12:16:22.187Z,7.95
2023-05-16T12:18:01.938Z,7.95
2023-05-16T12:19:41.711Z,7.68
2023-05-16T12:21:21.476Z,8.22
2023-05-16T12:23:01.259Z,7.95
2023-05-16T12:24:41.011Z,8.5
2023-05-16T12:26:20.780Z,8.22
2023-05-16T12:28:00.569Z,6.01
2023-05-16T12:29:40.326Z,8.78
2023-05-16T12:31:20.117Z,8.22
2023-05-16T12:32:59.875Z,7.95
2023-05-16T12:34:39.639Z,7.4
2023-05-16T12:36:19.411Z,8.22
2023-05-16T12:37:59.194Z,8.5
2023-05-16T12:39:38.950Z,8.22
2023-05-16T12:41:18.727Z,7.95
2023-05-16T12:42:58.499Z,7.13
2023-05-16T12:44:38.262Z,7.95
2023-05-16T12:46:18.050Z,8.22
2023-05-16T12:47:57.802Z,8.5
2023-05-16T12:49:37.573Z,7.67
2023-05-16T12:51:17.348Z,8.5
2023-05-16T12:52:57.120Z,7.67
2023-05-16T12:54:36.888Z,7.67
2023-05-16T12:56:16.668Z,7.68
2023-05-16T12:57:56.438Z,7.4
2023-05-16T12:59:36.189Z,7.67
2023-05-16T13:01:15.981Z,7.67
2023-05-16T13:02:55.735Z,7.4
2023-05-16T13:04:35.532Z,6.85
2023-05-16T13:06:15.267Z,7.67
2023-05-16T13:07:55.335Z,7.67
2023-05-16T13:09:34.810Z,8.22
2023-05-16T13:11:14.588Z,7.95
2023-05-16T13:12:54.371Z,7.95
2023-05-16T13:14:34.141Z,7.4
2023-05-16T13:16:13.914Z,7.94
2023-05-16T13:17:53.678Z,7.67
2023-05-16T13:19:33.434Z,7.67
2023-05-16T13:21:13.210Z,7.67
2023-05-16T13:22:52.976Z,7.67
2023-05-16T13:24:32.750Z,8.49
2023-05-16T13:26:12.522Z,7.67
2023-05-16T13:27:52.306Z,7.4
2023-05-16T13:29:32.075Z,7.94
2023-05-16T13:31:11.826Z,7.67
2023-05-16T13:32:51.667Z,7.67
2023-05-16T13:34:31.456Z,7.12
2023-05-16T13:36:11.165Z,7.67
2023-05-16T13:37:50.920Z,8.49
2023-05-16T13:39:30.712Z,6.57
2023-05-16T13:41:10.454Z,7.94
2023-05-16T13:42:50.423Z,8.49
2023-05-16T13:44:30.020Z,8.22
2023-05-16T13:46:09.841Z,6
2023-05-16T13:47:49.546Z,7.67
2023-05-16T13:49:29.365Z,7.39
2023-05-16T13:51:09.106Z,7.94
2023-05-16T13:52:48.846Z,7.39
2023-05-16T13:54:28.638Z,7.12
2023-05-16T13:56:08.405Z,7.39
2023-05-16T13:57:48.159Z,7.66
2023-05-16T13:59:27.942Z,6.84
2023-05-16T14:01:07.701Z,7.94
2023-05-16T14:02:47.481Z,6.84
2023-05-16T14:04:27.249Z,7.66
2023-05-16T14:06:07.062Z,6.84
2023-05-16T14:07:46.781Z,7.11
2023-05-16T14:09:26.540Z,7.39
2023-05-16T14:11:06.330Z,7.11
2023-05-16T14:12:46.099Z,4.63
2023-05-16T14:14:25.860Z,6.84
2023-05-16T14:16:05.635Z,7.94
2023-05-16T14:17:45.399Z,7.11
2023-05-16T14:19:25.173Z,6.84
2023-05-16T14:21:04.938Z,7.66
2023-05-16T14:22:44.716Z,7.66
2023-05-16T14:24:24.528Z,6.84
2023-05-16T14:26:04.252Z,6.84
2023-05-16T14:27:44.026Z,7.38
2023-05-16T14:29:23.798Z,7.66
2023-05-16T14:31:03.567Z,7.39
2023-05-16T14:32:43.355Z,7.66
2023-05-16T14:34:23.112Z,7.66
2023-05-16T14:36:02.870Z,7.11
2023-05-16T14:37:42.656Z,6.28
2023-05-16T14:39:22.435Z,7.11
2023-05-16T14:41:02.202Z,6.56
2023-05-16T14:42:41.963Z,7.11
2023-05-16T14:44:21.735Z,6.84
2023-05-16T14:46:01.508Z,6.84
2023-05-16T14:47:41.272Z,7.11
2023-05-16T14:49:21.039Z,6.84
2023-05-16T14:51:00.806Z,7.11
2023-05-16T14:52:40.602Z,6.83
2023-05-16T14:54:20.358Z,6.29
2023-05-16T14:56:00.132Z,6.56
2023-05-16T14:57:39.898Z,7.11
2023-05-16T14:59:19.778Z,6.83
2023-05-16T15:00:59.443Z,6.83
2023-05-16T15:02:39.201Z,6.29
2023-05-16T15:04:18.986Z,6.52
2023-05-16T15:05:58.748Z,7.38
2023-05-16T15:07:38.532Z,7.38
2023-05-16T15:09:18.293Z,6.28
2023-05-16T15:10:58.076Z,6.01
2023-05-16T15:12:37.832Z,7.11
2023-05-16T15:14:17.601Z,7.38
2023-05-16T15:15:57.367Z,6.56
2023-05-16T15:17:37.148Z,6.01
2023-05-16T15:19:16.920Z,7.1
2023-05-16T15:20:56.823Z,6.83
2023-05-16T15:22:36.449Z,6.01
2023-05-16T15:24:16.258Z,6.28
2023-05-16T15:25:55.990Z,6.28
2023-05-16T15:27:35.775Z,6.55
2023-05-16T15:29:15.556Z,6.83
2023-05-16T15:30:55.349Z,6.01
2023-05-16T15:32:35.078Z,6.28
2023-05-16T15:34:14.847Z,6.55
2023-05-16T15:35:54.609Z,7.1
2023-05-16T15:37:34.400Z,6.28
2023-05-16T15:39:14.154Z,6
2023-05-16T15:40:53.936Z,6.83
2023-05-16T15:42:33.694Z,6.28
2023-05-16T15:44:13.485Z,7.1
2023-05-16T15:45:53.240Z,6.01
2023-05-16T15:47:33.007Z,6.55
2023-05-16T15:49:12.809Z,6.01
2023-05-16T15:50:52.641Z,6.28
2023-05-16T15:52:32.328Z,6.28
2023-05-16T15:54:12.147Z,6.01
2023-05-16T15:55:51.869Z,6.27
2023-05-16T15:57:31.697Z,6
2023-05-16T15:59:11.488Z,5.73
2023-05-16T16:00:51.206Z,6.01
2023-05-16T16:02:30.944Z,6.28
2023-05-16T16:04:10.851Z,6
2023-05-16T16:05:50.485Z,6.55
2023-05-16T16:07:30.322Z,6.28
2023-05-16T16:09:10.170Z,6.28
2023-05-16T16:10:49.811Z,7.1
2023-05-16T16:12:29.581Z,5.73
2023-05-16T16:14:09.359Z,6.82
2023-05-16T16:15:49.206Z,6.82
2023-05-16T16:17:28.880Z,6.27
2023-05-16T16:19:08.653Z,6.27
2023-05-16T16:20:48.419Z,7.09
2023-05-16T16:22:28.289Z,5.44
2023-05-16T16:24:07.962Z,6.28
2023-05-16T16:25:47.731Z,6
2023-05-16T16:27:27.559Z,6.27
2023-05-16T16:29:07.272Z,7.1
2023-05-16T16:30:47.073Z,7.1
2023-05-16T16:32:26.938Z,6.55
2023-05-16T16:34:06.596Z,6.55
2023-05-16T16:35:46.389Z,6.28
2023-05-16T16:37:26.134Z,6.28
2023-05-16T16:39:05.897Z,6.82
2023-05-16T16:40:45.735Z,6.54
2023-05-16T16:42:25.550Z,6.27
2023-05-16T16:44:05.382Z,6.27
2023-05-16T16:45:44.982Z,6
2023-05-16T16:47:24.761Z,6
2023-05-16T16:49:04.627Z,6
2023-05-16T16:50:44.369Z,6.27
2023-05-16T16:52:24.101Z,5.45
2023-05-16T16:54:03.916Z,6
2023-05-16T16:55:43.604Z,5.73
2023-05-16T16:57:23.395Z,6.82
2023-05-16T16:59:03.229Z,6.54
2023-05-16T17:00:42.921Z,5.73
2023-05-16T17:02:22.787Z,6
2023-05-16T17:04:02.561Z,6
2023-05-16T17:05:42.229Z,6.54
2023-05-16T17:07:22.069Z,6
2023-05-16T17:09:01.880Z,5.73
2023-05-16T17:10:41.615Z,6.82
2023-05-16T17:12:21.417Z,7.09
2023-05-16T17:14:01.088Z,5.72
2023-05-16T17:15:40.860Z,5.46
2023-05-16T17:17:20.625Z,5.46
2023-05-16T17:19:00.435Z,6.54
2023-05-16T17:20:40.195Z,6.82
2023-05-16T17:22:19.937Z,6.27
2023-05-16T17:23:59.710Z,6
2023-05-16T17:25:39.472Z,6.82
2023-05-16T17:27:19.239Z,6
2023-05-16T17:28:59.093Z,6.27
2023-05-16T17:30:38.864Z,5.45
2023-05-16T17:32:18.570Z,6
2023-05-16T17:33:58.316Z,6.82
2023-05-16T17:35:38.230Z,5.73
2023-05-16T17:37:17.986Z,6
2023-05-16T17:38:57.635Z,5.73
2023-05-16T17:40:37.401Z,4.88
2023-05-16T17:42:17.185Z,6
2023-05-16T17:43:56.951Z,6
2023-05-16T17:45:36.798Z,6
2023-05-16T17:47:16.486Z,6.82
2023-05-16T17:48:56.277Z,6.27
2023-05-16T17:50:36.032Z,6.54
2023-05-16T17:52:15.792Z,6
2023-05-16T17:53:55.568Z,5.73
2023-05-16T17:55:35.346Z,6
2023-05-16T17:57:15.101Z,6
2023-05-16T17:58:54.877Z,6
2023-05-16T18:00:34.674Z,6.27
2023-05-16T18:02:14.452Z,6.27
2023-05-16T18:03:54.203Z,5.46
2023-05-16T18:05:34.020Z,6.82
2023-05-16T18:07:13.733Z,9.79
2023-05-16T18:08:53.520Z,6
2023-05-16T18:10:33.299Z,6.27
2023-05-16T18:12:13.040Z,6
2023-05-16T18:13:52.830Z,5.73
2023-05-16T18:15:32.669Z,5.73
2023-05-16T18:17:12.392Z,5.73
2023-05-16T18:18:52.321Z,5.73
2023-05-16T18:20:32.018Z,6
2023-05-16T18:22:11.722Z,5.73
2023-05-16T18:23:51.541Z,6.55
2023-05-16T18:25:31.245Z,6.82
2023-05-16T18:27:11.131Z,5.73
2023-05-16T18:28:50.739Z,6
2023-05-16T18:30:30.507Z,5.46
2023-05-16T18:32:10.352Z,5.45
2023-05-16T18:33:50.074Z,6.55
2023-05-16T18:35:29.854Z,5.73
2023-05-16T18:37:09.758Z,6
2023-05-16T18:38:49.523Z,5.17
2023-05-16T18:40:29.131Z,2.72
2023-05-16T18:42:08.914Z,2.44
2023-05-16T18:43:48.769Z,1.62
2023-05-16T18:45:28.442Z,1.08
2023-05-16T18:47:08.213Z,0.81
2023-05-16T18:48:47.987Z,0.81
2023-05-16T18:50:27.772Z,0
2023-05-16T18:52:07.701Z,0
2023-05-16T18:53:47.463Z,0
2023-05-16T18:55:27.233Z,0
2023-05-16T18:57:06.854Z,0
2023-05-16T18:58:46.601Z,0
2023-05-16T19:00:26.518Z,0
2023-05-16T19:02:06.226Z,0
2023-05-16T19:03:45.924Z,0
2023-05-16T19:05:25.827Z,0
2023-05-16T19:07:05.541Z,0
2023-05-16T19:08:45.294Z,0
2023-05-16T19:10:25.101Z,0
2023-05-16T19:12:04.733Z,0
2023-05-16T19:13:44.633Z,0
2023-05-16T19:15:24.270Z,0
2023-05-16T19:17:04.024Z,0
2023-05-16T19:18:43.856Z,0
2023-05-16T19:20:23.554Z,0
2023-05-16T19:22:03.351Z,0
2023-05-16T19:23:43.153Z,0
2023-05-16T19:25:22.886Z,0
2023-05-16T19:27:02.734Z,0
2023-05-16T19:28:42.421Z,0
2023-05-16T19:30:22.160Z,0
2023-05-16T19:32:02.013Z,0
2023-05-16T19:33:41.718Z,0
2023-05-16T19:35:21.484Z,0
2023-05-16T19:37:01.258Z,0
2023-05-16T19:38:41.087Z,0
2023-05-16T19:40:20.806Z,0
2023-05-16T19:42:00.543Z,0
2023-05-16T19:43:40.412Z,0
2023-05-16T19:45:20.100Z,0
2023-05-16T19:47:00.074Z,0
2023-05-16T19:48:39.735Z,0
2023-05-16T19:50:19.544Z,0
2023-05-16T19:51:59.291Z,0
2023-05-16T19:53:39.118Z,0
2023-05-16T19:55:18.681Z,0
2023-05-16T19:56:58.627Z,0
2023-05-16T19:58:38.371Z,0
2023-05-16T20:00:18.103Z,0
2023-05-16T20:01:57.917Z,0
2023-05-16T20:03:37.525Z,0
2023-05-16T20:05:17.299Z,0
2023-05-16T20:06:57.053Z,0
2023-05-16T20:08:36.967Z,0
2023-05-16T20:10:16.617Z,0
2023-05-16T20:11:56.423Z,0
2023-05-16T20:13:36.173Z,0
2023-05-16T20:15:15.906Z,0
2023-05-16T20:16:55.655Z,0
2023-05-16T20:18:35.445Z,0
2023-05-16T20:20:15.238Z,0
2023-05-16T20:21:54.986Z,0
2023-05-16T20:23:34.750Z,0
2023-05-16T20:25:14.497Z,0
2023-05-16T20:26:54.268Z,0
2023-05-16T20:28:34.083Z,0
2023-05-16T20:30:13.812Z,0
2023-05-16T20:31:53.573Z,0
2023-05-16T20:33:33.391Z,0
2023-05-16T20:35:13.101Z,0
2023-05-16T20:36:52.876Z,0
2023-05-16T20:38:32.717Z,0
2023-05-16T20:40:12.435Z,0
2023-05-16T20:41:52.169Z,0
2023-05-16T20:43:31.938Z,0
2023-05-16T20:45:11.750Z,0
2023-05-16T20:46:51.485Z,0
2023-05-16T20:48:31.264Z,0
2023-05-16T20:50:11.065Z,0
2023-05-16T20:51:50.782Z,0
2023-05-16T20:53:30.564Z,0
2023-05-16T20:55:10.324Z,0
2023-05-16T20:56:50.116Z,0
2023-05-16T20:58:29.940Z,0
2023-05-16T21:00:09.684Z,0
2023-05-16T21:01:49.376Z,0
2023-05-16T21:03:29.204Z,0
2023-05-16T21:05:08.974Z,0
2023-05-16T21:06:48.755Z,0
2023-05-16T21:08:28.464Z,0
2023-05-16T21:10:08.400Z,0
2023-05-16T21:11:47.990Z,0
2023-05-16T21:13:27.830Z,0
2023-05-16T21:15:07.518Z,0
2023-05-16T21:16:47.297Z,0
2023-05-16T21:18:27.061Z,0
2023-05-16T21:20:06.852Z,0
2023-05-16T21:21:46.620Z,0
2023-05-16T21:23:26.415Z,0
2023-05-16T21:25:06.193Z,0
2023-05-16T21:26:45.912Z,0
2023-05-16T21:28:25.750Z,0
2023-05-16T21:30:05.490Z,0
2023-05-16T21:31:45.198Z,0
2023-05-16T21:33:25.142Z,0
2023-05-16T21:35:04.763Z,0
2023-05-16T21:36:44.509Z,0
2023-05-16T21:38:24.302Z,0
2023-05-16T21:40:04.233Z,0
2023-05-16T21:41:43.862Z,0
2023-05-16T21:43:23.584Z,0
2023-05-16T21:45:03.372Z,0
2023-05-16T21:46:43.110Z,0
2023-05-16T21:48:23.069Z,0
2023-05-16T21:50:02.804Z,0
2023-05-16T21:51:42.432Z,0
2023-05-16T21:53:22.234Z,0
2023-05-16T21:55:02.053Z,0
2023-05-16T21:56:41.712Z,0
2023-05-16T21:58:21.528Z,0
2023-05-16T22:00:01.356Z,0
2023-05-16T22:01:41.018Z,0
2023-05-16T22:03:20.877Z,0
2023-05-16T22:05:00.566Z,0
2023-05-16T22:06:40.435Z,0
2023-05-16T22:08:20.104Z,0
2023-05-16T22:09:59.860Z,0
2023-05-16T22:11:39.635Z,0
2023-05-16T22:13:19.404Z,0
2023-05-16T22:14:59.167Z,0
2023-05-16T22:16:38.949Z,0
2023-05-16T22:18:18.697Z,0
2023-05-16T22:19:58.449Z,0
2023-05-16T22:21:38.318Z,0
2023-05-16T22:23:18.067Z,0
2023-05-16T22:24:57.810Z,0
2023-05-16T22:26:37.663Z,0
2023-05-16T22:28:17.360Z,0
2023-05-16T22:29:57.133Z,0
2023-05-16T22:31:36.872Z,0
2023-05-16T22:33:16.670Z,0
2023-05-16T22:34:56.372Z,0
2023-05-16T22:36:36.190Z,0
2023-05-16T22:38:15.988Z,0
2023-05-16T22:39:55.746Z,0
2023-05-16T22:41:35.458Z,0
2023-05-16T22:43:15.206Z,0
2023-05-16T22:44:54.974Z,0
2023-05-16T22:46:34.859Z,0
2023-05-16T22:48:14.496Z,0
2023-05-16T22:49:54.268Z,0
2023-05-16T22:51:34.119Z,0
2023-05-16T22:53:13.815Z,0
2023-05-16T22:54:53.603Z,0
2023-05-16T22:56:33.410Z,0